sensor_id;sensor_type;location;lat;lon;timestamp;P1;durP1;ratioP1;P2;durP2;ratioP2
69856;SDS011;57147;53.582;10.112;2022-07-04T00:01:46;4.93;;;1.27;;
69856;SDS011;57147;53.582;10.112;2022-07-04T00:06:46;7.50;;;1.13;;
69856;SDS011;57147;53.582;10.112;2022-07-04T00:11:49;5.55;;;1.02;;
69856;SDS011;57147;53.582;10.112;2022-07-04T00:16:50;6.78;;;1.70;;
69856;SDS011;57147;53.582;10.112;2022-07-04T00:21:51;6.25;;;1.02;;
69856;SDS011;57147;53.582;10.112;2022-07-04T00:26:54;6.18;;;1.55;;
69856;SDS011;57147;53.582;10.112;2022-07-04T00:31:55;6.10;;;1.58;;
69856;SDS011;57147;53.582;10.112;2022-07-04T00:36:55;5.20;;;1.65;;
69856;SDS011;57147;53.582;10.112;2022-07-04T00:41:59;10.73;;;1.65;;
69856;SDS011;57147;53.582;10.112;2022-07-04T00:46:59;8.30;;;1.60;;
69856;SDS011;57147;53.582;10.112;2022-07-04T00:52:00;7.53;;;2.17;;
69856;SDS011;57147;53.582;10.112;2022-07-04T00:57:04;7.10;;;2.95;;
69856;SDS011;57147;53.582;10.112;2022-07-04T01:02:05;10.68;;;3.28;;
69856;SDS011;57147;53.582;10.112;2022-07-04T01:07:06;6.88;;;2.85;;
69856;SDS011;57147;53.582;10.112;2022-07-04T01:12:10;10.13;;;3.63;;
69856;SDS011;57147;53.582;10.112;2022-07-04T01:17:10;7.50;;;2.75;;
69856;SDS011;57147;53.582;10.112;2022-07-04T01:22:14;11.32;;;3.33;;
69856;SDS011;57147;53.582;10.112;2022-07-04T01:27:15;9.90;;;3.75;;
69856;SDS011;57147;53.582;10.112;2022-07-04T01:32:16;7.53;;;3.97;;
69856;SDS011;57147;53.582;10.112;2022-07-04T01:37:19;10.55;;;4.80;;
69856;SDS011;57147;53.582;10.112;2022-07-04T01:42:20;10.32;;;5.32;;
69856;SDS011;57147;53.582;10.112;2022-07-04T01:47:21;11.90;;;5.05;;
69856;SDS011;57147;53.582;10.112;2022-07-04T01:52:24;8.18;;;4.90;;
69856;SDS011;57147;53.582;10.112;2022-07-04T01:57:24;10.80;;;6.00;;
69856;SDS011;57147;53.582;10.112;2022-07-04T02:02:25;10.38;;;6.38;;
69856;SDS011;57147;53.582;10.112;2022-07-04T02:07:28;11.55;;;5.88;;
69856;SDS011;57147;53.582;10.112;2022-07-04T02:12:29;12.73;;;8.32;;
69856;SDS011;57147;53.582;10.112;2022-07-04T02:17:29;10.45;;;6.75;;
69856;SDS011;57147;53.582;10.112;2022-07-04T02:22:33;14.65;;;7.07;;
69856;SDS011;57147;53.582;10.112;2022-07-04T02:27:33;11.32;;;7.47;;
69856;SDS011;57147;53.582;10.112;2022-07-04T02:32:34;10.85;;;8.43;;
69856;SDS011;57147;53.582;10.112;2022-07-04T02:37:38;12.27;;;8.38;;
69856;SDS011;57147;53.582;10.112;2022-07-04T02:42:39;13.48;;;7.72;;
69856;SDS011;57147;53.582;10.112;2022-07-04T02:47:39;12.00;;;9.68;;
69856;SDS011;57147;53.582;10.112;2022-07-04T02:52:42;12.30;;;8.52;;
69856;SDS011;57147;53.582;10.112;2022-07-04T02:57:44;13.95;;;9.80;;
69856;SDS011;57147;53.582;10.112;2022-07-04T03:02:44;8.63;;;6.40;;
69856;SDS011;57147;53.582;10.112;2022-07-04T03:07:48;10.98;;;7.22;;
69856;SDS011;57147;53.582;10.112;2022-07-04T03:12:48;13.80;;;7.57;;
69856;SDS011;57147;53.582;10.112;2022-07-04T03:17:49;9.63;;;7.40;;
69856;SDS011;57147;53.582;10.112;2022-07-04T03:22:52;10.45;;;5.47;;
69856;SDS011;57147;53.582;10.112;2022-07-04T03:27:53;11.52;;;7.07;;
69856;SDS011;57147;53.582;10.112;2022-07-04T03:32:53;11.00;;;5.60;;
69856;SDS011;57147;53.582;10.112;2022-07-04T03:37:56;7.25;;;4.93;;
69856;SDS011;57147;53.582;10.112;2022-07-04T03:42:57;8.45;;;4.28;;
69856;SDS011;57147;53.582;10.112;2022-07-04T03:47:58;7.45;;;4.20;;
69856;SDS011;57147;53.582;10.112;2022-07-04T03:53:01;10.88;;;7.45;;
69856;SDS011;57147;53.582;10.112;2022-07-04T03:58:02;11.18;;;6.32;;
69856;SDS011;57147;53.582;10.112;2022-07-04T04:03:02;9.15;;;6.07;;
69856;SDS011;57147;53.582;10.112;2022-07-04T04:08:06;11.27;;;6.00;;
69856;SDS011;57147;53.582;10.112;2022-07-04T04:13:06;10.20;;;5.35;;
69856;SDS011;57147;53.582;10.112;2022-07-04T04:18:07;9.65;;;5.18;;
69856;SDS011;57147;53.582;10.112;2022-07-04T04:23:10;11.88;;;6.72;;
69856;SDS011;57147;53.582;10.112;2022-07-04T04:28:11;9.63;;;5.75;;
69856;SDS011;57147;53.582;10.112;2022-07-04T04:33:11;11.63;;;5.80;;
69856;SDS011;57147;53.582;10.112;2022-07-04T04:38:14;9.15;;;5.03;;
69856;SDS011;57147;53.582;10.112;2022-07-04T04:43:15;10.43;;;6.85;;
69856;SDS011;57147;53.582;10.112;2022-07-04T04:48:16;11.07;;;4.82;;
69856;SDS011;57147;53.582;10.112;2022-07-04T04:53:19;6.70;;;3.72;;
69856;SDS011;57147;53.582;10.112;2022-07-04T04:58:19;5.95;;;3.58;;
69856;SDS011;57147;53.582;10.112;2022-07-04T05:08:41;6.75;;;3.03;;
69856;SDS011;57147;53.582;10.112;2022-07-04T05:13:42;6.32;;;3.20;;
69856;SDS011;57147;53.582;10.112;2022-07-04T05:18:43;8.50;;;3.55;;
69856;SDS011;57147;53.582;10.112;2022-07-04T05:23:46;7.82;;;3.50;;
69856;SDS011;57147;53.582;10.112;2022-07-04T05:28:46;5.55;;;2.92;;
69856;SDS011;57147;53.582;10.112;2022-07-04T05:33:47;6.38;;;3.28;;
69856;SDS011;57147;53.582;10.112;2022-07-04T05:38:50;7.57;;;2.70;;
69856;SDS011;57147;53.582;10.112;2022-07-04T05:43:52;4.75;;;2.80;;
69856;SDS011;57147;53.582;10.112;2022-07-04T05:48:53;6.75;;;1.67;;
69856;SDS011;57147;53.582;10.112;2022-07-04T05:53:56;4.82;;;1.75;;
69856;SDS011;57147;53.582;10.112;2022-07-04T05:58:57;8.35;;;1.60;;
69856;SDS011;57147;53.582;10.112;2022-07-04T06:03:59;6.13;;;1.75;;
69856;SDS011;57147;53.582;10.112;2022-07-04T06:09:02;4.50;;;1.50;;
69856;SDS011;57147;53.582;10.112;2022-07-04T06:14:03;4.47;;;1.23;;
69856;SDS011;57147;53.582;10.112;2022-07-04T06:19:04;4.80;;;0.63;;
69856;SDS011;57147;53.582;10.112;2022-07-04T06:24:07;2.97;;;1.00;;
69856;SDS011;57147;53.582;10.112;2022-07-04T06:29:08;4.43;;;0.95;;
69856;SDS011;57147;53.582;10.112;2022-07-04T06:34:08;3.95;;;1.00;;
69856;SDS011;57147;53.582;10.112;2022-07-04T06:39:11;4.25;;;0.90;;
69856;SDS011;57147;53.582;10.112;2022-07-04T06:44:12;3.92;;;0.73;;
69856;SDS011;57147;53.582;10.112;2022-07-04T06:49:13;3.63;;;0.93;;
69856;SDS011;57147;53.582;10.112;2022-07-04T06:54:16;3.55;;;0.65;;
69856;SDS011;57147;53.582;10.112;2022-07-04T06:59:16;2.67;;;0.98;;
69856;SDS011;57147;53.582;10.112;2022-07-04T07:04:17;6.40;;;0.77;;
69856;SDS011;57147;53.582;10.112;2022-07-04T07:09:20;1.27;;;0.32;;
69856;SDS011;57147;53.582;10.112;2022-07-04T07:14:21;3.92;;;0.80;;
69856;SDS011;57147;53.582;10.112;2022-07-04T07:19:21;5.10;;;0.82;;
69856;SDS011;57147;53.582;10.112;2022-07-04T07:24:25;6.18;;;0.57;;
69856;SDS011;57147;53.582;10.112;2022-07-04T07:29:25;3.75;;;0.57;;
69856;SDS011;57147;53.582;10.112;2022-07-04T07:34:26;4.47;;;0.50;;
69856;SDS011;57147;53.582;10.112;2022-07-04T07:39:29;4.63;;;1.08;;
69856;SDS011;57147;53.582;10.112;2022-07-04T07:44:30;3.60;;;0.50;;
69856;SDS011;57147;53.582;10.112;2022-07-04T07:49:30;5.47;;;0.93;;
69856;SDS011;57147;53.582;10.112;2022-07-04T07:54:36;1.88;;;0.63;;
69856;SDS011;57147;53.582;10.112;2022-07-04T07:59:36;3.55;;;0.60;;
69856;SDS011;57147;53.582;10.112;2022-07-04T08:04:37;3.70;;;1.05;;
69856;SDS011;57147;53.582;10.112;2022-07-04T08:09:40;3.67;;;1.10;;
69856;SDS011;57147;53.582;10.112;2022-07-04T08:14:41;1.45;;;0.35;;
69856;SDS011;57147;53.582;10.112;2022-07-04T08:19:41;1.30;;;0.40;;
69856;SDS011;57147;53.582;10.112;2022-07-04T08:24:44;2.47;;;0.65;;
69856;SDS011;57147;53.582;10.112;2022-07-04T08:29:45;2.47;;;0.52;;
69856;SDS011;57147;53.582;10.112;2022-07-04T08:34:46;2.75;;;0.60;;
69856;SDS011;57147;53.582;10.112;2022-07-04T08:39:49;4.38;;;0.43;;
69856;SDS011;57147;53.582;10.112;2022-07-04T08:44:50;2.25;;;0.57;;
69856;SDS011;57147;53.582;10.112;2022-07-04T08:49:54;1.70;;;0.47;;
69856;SDS011;57147;53.582;10.112;2022-07-04T08:55:11;3.78;;;1.70;;
69856;SDS011;57147;53.582;10.112;2022-07-04T09:00:13;2.60;;;0.30;;
69856;SDS011;57147;53.582;10.112;2022-07-04T09:05:14;2.25;;;0.80;;
69856;SDS011;57147;53.582;10.112;2022-07-04T09:10:18;2.63;;;0.75;;
69856;SDS011;57147;53.582;10.112;2022-07-04T09:15:20;2.35;;;0.57;;
69856;SDS011;57147;53.582;10.112;2022-07-04T09:20:22;2.30;;;0.45;;
69856;SDS011;57147;53.582;10.112;2022-07-04T09:25:25;2.47;;;0.63;;
69856;SDS011;57147;53.582;10.112;2022-07-04T09:30:27;2.30;;;0.30;;
69856;SDS011;57147;53.582;10.112;2022-07-04T09:35:29;2.13;;;0.35;;
69856;SDS011;57147;53.582;10.112;2022-07-04T09:40:34;2.05;;;0.35;;
69856;SDS011;57147;53.582;10.112;2022-07-04T09:45:37;2.50;;;0.32;;
69856;SDS011;57147;53.582;10.112;2022-07-04T09:50:53;1.65;;;0.35;;
69856;SDS011;57147;53.582;10.112;2022-07-04T09:55:57;2.15;;;0.47;;
69856;SDS011;57147;53.582;10.112;2022-07-04T10:00:58;5.70;;;3.00;;
69856;SDS011;57147;53.582;10.112;2022-07-04T10:06:03;2.25;;;0.60;;
69856;SDS011;57147;53.582;10.112;2022-07-04T10:11:08;3.78;;;0.20;;
69856;SDS011;57147;53.582;10.112;2022-07-04T10:16:09;5.50;;;1.02;;
69856;SDS011;57147;53.582;10.112;2022-07-04T10:21:11;2.20;;;0.17;;
69856;SDS011;57147;53.582;10.112;2022-07-04T10:26:16;3.10;;;0.10;;
69856;SDS011;57147;53.582;10.112;2022-07-04T10:31:18;0.68;;;0.38;;
69856;SDS011;57147;53.582;10.112;2022-07-04T10:36:21;2.00;;;0.30;;
69856;SDS011;57147;53.582;10.112;2022-07-04T10:41:25;1.05;;;0.13;;
69856;SDS011;57147;53.582;10.112;2022-07-04T10:46:27;4.93;;;0.40;;
69856;SDS011;57147;53.582;10.112;2022-07-04T10:51:32;0.90;;;0.40;;
69856;SDS011;57147;53.582;10.112;2022-07-04T10:56:45;1.60;;;0.50;;
69856;SDS011;57147;53.582;10.112;2022-07-04T11:01:48;3.10;;;0.13;;
69856;SDS011;57147;53.582;10.112;2022-07-04T11:06:50;1.65;;;0.32;;
69856;SDS011;57147;53.582;10.112;2022-07-04T11:11:58;2.22;;;0.15;;
69856;SDS011;57147;53.582;10.112;2022-07-04T11:17:00;1.60;;;0.28;;
69856;SDS011;57147;53.582;10.112;2022-07-04T11:22:00;0.60;;;0.20;;
69856;SDS011;57147;53.582;10.112;2022-07-04T11:27:06;0.98;;;0.15;;
69856;SDS011;57147;53.582;10.112;2022-07-04T11:32:07;0.85;;;0.13;;
69856;SDS011;57147;53.582;10.112;2022-07-04T11:37:08;1.80;;;0.00;;
69856;SDS011;57147;53.582;10.112;2022-07-04T11:42:11;2.33;;;0.93;;
69856;SDS011;57147;53.582;10.112;2022-07-04T11:47:12;1.75;;;0.50;;
69856;SDS011;57147;53.582;10.112;2022-07-04T11:52:14;2.53;;;0.43;;
69856;SDS011;57147;53.582;10.112;2022-07-04T11:57:20;2.58;;;0.68;;
69856;SDS011;57147;53.582;10.112;2022-07-04T12:02:22;1.45;;;0.63;;
69856;SDS011;57147;53.582;10.112;2022-07-04T12:07:23;1.25;;;0.60;;
69856;SDS011;57147;53.582;10.112;2022-07-04T12:12:28;1.55;;;0.50;;
69856;SDS011;57147;53.582;10.112;2022-07-04T12:17:32;3.95;;;0.30;;
69856;SDS011;57147;53.582;10.112;2022-07-04T12:22:37;2.40;;;0.80;;
69856;SDS011;57147;53.582;10.112;2022-07-04T12:27:42;0.73;;;0.25;;
69856;SDS011;57147;53.582;10.112;2022-07-04T12:32:57;1.90;;;0.57;;
69856;SDS011;57147;53.582;10.112;2022-07-04T12:38:02;3.97;;;0.30;;
69856;SDS011;57147;53.582;10.112;2022-07-04T12:43:06;1.92;;;0.22;;
69856;SDS011;57147;53.582;10.112;2022-07-04T12:48:13;0.98;;;0.13;;
69856;SDS011;57147;53.582;10.112;2022-07-04T12:53:15;1.65;;;0.38;;
69856;SDS011;57147;53.582;10.112;2022-07-04T12:58:19;2.55;;;0.95;;
69856;SDS011;57147;53.582;10.112;2022-07-04T13:03:19;0.88;;;0.45;;
69856;SDS011;57147;53.582;10.112;2022-07-04T13:08:20;3.42;;;0.30;;
69856;SDS011;57147;53.582;10.112;2022-07-04T13:13:30;2.25;;;0.47;;
69856;SDS011;57147;53.582;10.112;2022-07-04T13:18:31;2.63;;;0.47;;
69856;SDS011;57147;53.582;10.112;2022-07-04T13:23:32;1.67;;;0.13;;
69856;SDS011;57147;53.582;10.112;2022-07-04T13:28:35;4.18;;;0.43;;
69856;SDS011;57147;53.582;10.112;2022-07-04T13:33:37;2.63;;;0.25;;
69856;SDS011;57147;53.582;10.112;2022-07-04T13:38:38;0.85;;;0.22;;
69856;SDS011;57147;53.582;10.112;2022-07-04T13:43:41;1.30;;;0.50;;
69856;SDS011;57147;53.582;10.112;2022-07-04T13:48:42;1.38;;;0.52;;
69856;SDS011;57147;53.582;10.112;2022-07-04T13:53:43;4.25;;;2.33;;
69856;SDS011;57147;53.582;10.112;2022-07-04T13:58:46;1.88;;;0.65;;
69856;SDS011;57147;53.582;10.112;2022-07-04T14:03:47;5.68;;;0.35;;
69856;SDS011;57147;53.582;10.112;2022-07-04T14:08:48;4.47;;;1.33;;
69856;SDS011;57147;53.582;10.112;2022-07-04T14:13:52;5.53;;;0.32;;
69856;SDS011;57147;53.582;10.112;2022-07-04T14:18:52;2.47;;;0.68;;
69856;SDS011;57147;53.582;10.112;2022-07-04T14:23:55;2.28;;;0.35;;
69856;SDS011;57147;53.582;10.112;2022-07-04T14:28:58;2.75;;;0.73;;
69856;SDS011;57147;53.582;10.112;2022-07-04T14:33:59;1.98;;;0.88;;
69856;SDS011;57147;53.582;10.112;2022-07-04T14:38:59;4.28;;;0.50;;
69856;SDS011;57147;53.582;10.112;2022-07-04T14:44:03;2.38;;;0.45;;
69856;SDS011;57147;53.582;10.112;2022-07-04T14:49:04;3.55;;;0.55;;
69856;SDS011;57147;53.582;10.112;2022-07-04T14:54:05;2.85;;;0.50;;
69856;SDS011;57147;53.582;10.112;2022-07-04T14:59:08;3.75;;;0.55;;
69856;SDS011;57147;53.582;10.112;2022-07-04T15:09:09;3.23;;;0.40;;
69856;SDS011;57147;53.582;10.112;2022-07-04T15:14:13;2.08;;;0.70;;
69856;SDS011;57147;53.582;10.112;2022-07-04T15:19:14;2.45;;;0.70;;
69856;SDS011;57147;53.582;10.112;2022-07-04T15:24:15;2.58;;;0.40;;
69856;SDS011;57147;53.582;10.112;2022-07-04T15:29:18;1.85;;;0.57;;
69856;SDS011;57147;53.582;10.112;2022-07-04T15:34:20;2.47;;;0.20;;
69856;SDS011;57147;53.582;10.112;2022-07-04T15:39:20;2.03;;;0.50;;
69856;SDS011;57147;53.582;10.112;2022-07-04T15:44:23;2.03;;;0.30;;
69856;SDS011;57147;53.582;10.112;2022-07-04T15:49:24;2.00;;;0.30;;
69856;SDS011;57147;53.582;10.112;2022-07-04T15:54:25;2.38;;;0.47;;
69856;SDS011;57147;53.582;10.112;2022-07-04T15:59:28;2.05;;;0.10;;
69856;SDS011;57147;53.582;10.112;2022-07-04T16:04:29;3.53;;;0.50;;
69856;SDS011;57147;53.582;10.112;2022-07-04T16:09:29;2.95;;;0.30;;
69856;SDS011;57147;53.582;10.112;2022-07-04T16:14:34;2.15;;;0.20;;
69856;SDS011;57147;53.582;10.112;2022-07-04T16:19:35;2.50;;;0.88;;
69856;SDS011;57147;53.582;10.112;2022-07-04T16:24:35;1.92;;;0.32;;
69856;SDS011;57147;53.582;10.112;2022-07-04T16:29:38;2.03;;;0.45;;
69856;SDS011;57147;53.582;10.112;2022-07-04T16:34:39;2.63;;;1.17;;
69856;SDS011;57147;53.582;10.112;2022-07-04T16:39:40;2.65;;;0.77;;
69856;SDS011;57147;53.582;10.112;2022-07-04T16:44:43;2.97;;;1.55;;
69856;SDS011;57147;53.582;10.112;2022-07-04T16:49:43;6.70;;;0.40;;
69856;SDS011;57147;53.582;10.112;2022-07-04T16:54:44;2.92;;;0.50;;
69856;SDS011;57147;53.582;10.112;2022-07-04T16:59:47;1.30;;;0.38;;
69856;SDS011;57147;53.582;10.112;2022-07-04T17:04:49;4.25;;;1.02;;
69856;SDS011;57147;53.582;10.112;2022-07-04T17:09:49;4.70;;;0.40;;
69856;SDS011;57147;53.582;10.112;2022-07-04T17:14:53;3.30;;;0.45;;
69856;SDS011;57147;53.582;10.112;2022-07-04T17:19:53;3.17;;;0.80;;
69856;SDS011;57147;53.582;10.112;2022-07-04T17:24:54;1.83;;;0.60;;
69856;SDS011;57147;53.582;10.112;2022-07-04T17:29:58;3.63;;;0.55;;
69856;SDS011;57147;53.582;10.112;2022-07-04T17:34:58;2.90;;;0.45;;
69856;SDS011;57147;53.582;10.112;2022-07-04T17:39:59;2.53;;;0.28;;
69856;SDS011;57147;53.582;10.112;2022-07-04T17:45:02;3.90;;;0.38;;
69856;SDS011;57147;53.582;10.112;2022-07-04T17:50:04;3.30;;;0.40;;
69856;SDS011;57147;53.582;10.112;2022-07-04T17:55:06;4.50;;;0.73;;
69856;SDS011;57147;53.582;10.112;2022-07-04T18:00:10;3.00;;;0.77;;
69856;SDS011;57147;53.582;10.112;2022-07-04T18:05:12;5.63;;;0.65;;
69856;SDS011;57147;53.582;10.112;2022-07-04T18:10:12;2.22;;;0.20;;
69856;SDS011;57147;53.582;10.112;2022-07-04T18:15:16;3.70;;;1.10;;
69856;SDS011;57147;53.582;10.112;2022-07-04T18:20:16;4.25;;;0.43;;
69856;SDS011;57147;53.582;10.112;2022-07-04T18:25:17;3.60;;;0.50;;
69856;SDS011;57147;53.582;10.112;2022-07-04T18:30:20;3.58;;;0.30;;
69856;SDS011;57147;53.582;10.112;2022-07-04T18:35:21;3.40;;;0.73;;
69856;SDS011;57147;53.582;10.112;2022-07-04T18:40:22;4.38;;;1.80;;
69856;SDS011;57147;53.582;10.112;2022-07-04T18:45:25;1.92;;;0.15;;
69856;SDS011;57147;53.582;10.112;2022-07-04T18:50:26;4.28;;;0.30;;
69856;SDS011;57147;53.582;10.112;2022-07-04T18:55:26;3.83;;;0.68;;
69856;SDS011;57147;53.582;10.112;2022-07-04T19:00:30;2.20;;;1.20;;
69856;SDS011;57147;53.582;10.112;2022-07-04T19:05:30;3.03;;;0.28;;
69856;SDS011;57147;53.582;10.112;2022-07-04T19:10:31;4.85;;;0.82;;
69856;SDS011;57147;53.582;10.112;2022-07-04T19:15:35;4.68;;;0.68;;
69856;SDS011;57147;53.582;10.112;2022-07-04T19:20:36;3.13;;;0.50;;
69856;SDS011;57147;53.582;10.112;2022-07-04T19:25:37;2.40;;;0.38;;
69856;SDS011;57147;53.582;10.112;2022-07-04T19:30:41;8.05;;;1.20;;
69856;SDS011;57147;53.582;10.112;2022-07-04T19:35:42;3.05;;;0.40;;
69856;SDS011;57147;53.582;10.112;2022-07-04T19:40:42;2.95;;;0.57;;
69856;SDS011;57147;53.582;10.112;2022-07-04T19:45:45;3.38;;;0.43;;
69856;SDS011;57147;53.582;10.112;2022-07-04T19:50:46;3.42;;;0.40;;
69856;SDS011;57147;53.582;10.112;2022-07-04T19:55:47;3.45;;;0.70;;
69856;SDS011;57147;53.582;10.112;2022-07-04T20:05:51;4.43;;;0.85;;
69856;SDS011;57147;53.582;10.112;2022-07-04T20:10:52;3.33;;;0.50;;
69856;SDS011;57147;53.582;10.112;2022-07-04T20:15:53;3.53;;;0.40;;
69856;SDS011;57147;53.582;10.112;2022-07-04T20:20:57;3.85;;;1.10;;
69856;SDS011;57147;53.582;10.112;2022-07-04T20:30:58;3.03;;;0.82;;
69856;SDS011;57147;53.582;10.112;2022-07-04T20:36:01;2.47;;;1.20;;
69856;SDS011;57147;53.582;10.112;2022-07-04T20:41:03;4.03;;;0.65;;
69856;SDS011;57147;53.582;10.112;2022-07-04T20:46:03;3.80;;;1.63;;
69856;SDS011;57147;53.582;10.112;2022-07-04T20:51:06;3.13;;;0.88;;
69856;SDS011;57147;53.582;10.112;2022-07-04T20:56:07;3.05;;;0.77;;
69856;SDS011;57147;53.582;10.112;2022-07-04T21:01:08;2.90;;;0.88;;
69856;SDS011;57147;53.582;10.112;2022-07-04T21:06:11;2.40;;;0.45;;
69856;SDS011;57147;53.582;10.112;2022-07-04T21:11:12;3.40;;;1.02;;
69856;SDS011;57147;53.582;10.112;2022-07-04T21:16:13;3.67;;;0.88;;
69856;SDS011;57147;53.582;10.112;2022-07-04T21:21:16;5.22;;;1.13;;
69856;SDS011;57147;53.582;10.112;2022-07-04T21:26:17;9.85;;;4.70;;
69856;SDS011;57147;53.582;10.112;2022-07-04T21:31:18;5.55;;;2.03;;
69856;SDS011;57147;53.582;10.112;2022-07-04T21:36:24;3.05;;;0.98;;
69856;SDS011;57147;53.582;10.112;2022-07-04T21:41:25;5.15;;;0.73;;
69856;SDS011;57147;53.582;10.112;2022-07-04T21:46:26;5.07;;;1.20;;
69856;SDS011;57147;53.582;10.112;2022-07-04T21:51:29;2.83;;;0.98;;
69856;SDS011;57147;53.582;10.112;2022-07-04T21:56:30;3.42;;;0.73;;
69856;SDS011;57147;53.582;10.112;2022-07-04T22:01:31;4.03;;;0.73;;
69856;SDS011;57147;53.582;10.112;2022-07-04T22:06:34;4.80;;;1.05;;
69856;SDS011;57147;53.582;10.112;2022-07-04T22:11:36;3.55;;;0.63;;
69856;SDS011;57147;53.582;10.112;2022-07-04T22:16:36;3.17;;;1.92;;
69856;SDS011;57147;53.582;10.112;2022-07-04T22:21:40;3.97;;;0.50;;
69856;SDS011;57147;53.582;10.112;2022-07-04T22:26:40;4.32;;;1.55;;
69856;SDS011;57147;53.582;10.112;2022-07-04T22:31:41;3.13;;;0.95;;
69856;SDS011;57147;53.582;10.112;2022-07-04T22:36:44;2.03;;;0.32;;
69856;SDS011;57147;53.582;10.112;2022-07-04T22:41:45;3.80;;;0.50;;
69856;SDS011;57147;53.582;10.112;2022-07-04T22:46:46;5.13;;;0.80;;
69856;SDS011;57147;53.582;10.112;2022-07-04T22:51:49;3.17;;;0.88;;
69856;SDS011;57147;53.582;10.112;2022-07-04T22:56:50;5.55;;;0.70;;
69856;SDS011;57147;53.582;10.112;2022-07-04T23:01:51;4.13;;;0.75;;
69856;SDS011;57147;53.582;10.112;2022-07-04T23:06:54;4.18;;;0.70;;
69856;SDS011;57147;53.582;10.112;2022-07-04T23:11:55;5.05;;;1.08;;
69856;SDS011;57147;53.582;10.112;2022-07-04T23:16:56;3.72;;;1.13;;
69856;SDS011;57147;53.582;10.112;2022-07-04T23:21:59;5.63;;;1.85;;
69856;SDS011;57147;53.582;10.112;2022-07-04T23:27:00;5.80;;;2.28;;
69856;SDS011;57147;53.582;10.112;2022-07-04T23:32:01;3.13;;;1.52;;
69856;SDS011;57147;53.582;10.112;2022-07-04T23:37:04;4.25;;;0.93;;
69856;SDS011;57147;53.582;10.112;2022-07-04T23:42:05;5.40;;;1.95;;
69856;SDS011;57147;53.582;10.112;2022-07-04T23:47:07;2.40;;;1.20;;
69856;SDS011;57147;53.582;10.112;2022-07-04T23:52:10;4.63;;;1.92;;
69856;SDS011;57147;53.582;10.112;2022-07-04T23:57:11;4.13;;;0.95;;
